Time,TemperatureF,DewpointF,PressureIn,WindDirection,WindDirectionDegrees,WindSpeedMPH,WindSpeedGustMPH,Humidity,HourlyPrecipIn,Conditions,Clouds,dailyrainin,SolarRadiationWatts/m^2,SoftwareType,DateUTC
2013-01-16 00:04:00,35.7,34.0,30.44,ENE,64,0.0,1.0,92,0.00,,,0.00,0,weatherlink.com 1.10,2013-01-16 08:04:00,
2013-01-16 00:20:00,35.4,33.0,30.45,ENE,64,0.0,2.0,92,0.00,,,0.00,0,weatherlink.com 1.10,2013-01-16 08:20:00,
2013-01-16 00:35:00,36.2,34.0,30.44,ENE,59,0.0,4.0,92,0.00,,,0.00,0,weatherlink.com 1.10,2013-01-16 08:35:00,
2013-01-16 00:50:00,36.8,35.0,30.45,ENE,58,0.0,0.0,92,0.00,,,0.00,0,weatherlink.com 1.10,2013-01-16 08:50:00,
2013-01-16 01:04:00,36.1,34.0,30.45,ENE,58,0.0,2.0,91,0.00,,,0.00,0,weatherlink.com 1.10,2013-01-16 09:04:00,
2013-01-16 01:20:00,35.6,34.0,30.45,ENE,58,0.0,0.0,92,0.00,,,0.00,0,weatherlink.com 1.10,2013-01-16 09:20:00,
2013-01-16 01:35:00,35.5,33.0,30.45,ENE,58,1.0,2.0,92,0.00,,,0.00,0,weatherlink.com 1.10,2013-01-16 09:35:00,
2013-01-16 01:50:00,35.1,33.0,30.45,ENE,58,0.0,2.0,92,0.00,,,0.00,0,weatherlink.com 1.10,2013-01-16 09:50:00,
2013-01-16 02:05:00,35.1,33.0,30.45,ENE,58,0.0,2.0,92,0.00,,,0.00,0,weatherlink.com 1.10,2013-01-16 10:05:00,
2013-01-16 02:20:00,35.4,33.0,30.45,ENE,58,0.0,1.0,91,0.00,,,0.00,0,weatherlink.com 1.10,2013-01-16 10:20:00,
2013-01-16 02:35:00,35.2,33.0,30.45,ENE,58,0.0,1.0,92,0.00,,,0.00,0,weatherlink.com 1.10,2013-01-16 10:35:00,
2013-01-16 02:51:00,36.2,34.0,30.45,ENE,58,0.0,0.0,91,0.00,,,0.00,0,weatherlink.com 1.10,2013-01-16 10:51:00,
2013-01-16 03:06:00,35.9,33.0,30.45,ENE,58,0.0,0.0,90,0.00,,,0.00,0,weatherlink.com 1.10,2013-01-16 11:06:00,
2013-01-16 03:20:00,35.3,33.0,30.45,ENE,58,0.0,1.0,90,0.00,,,0.00,0,weatherlink.com 1.10,2013-01-16 11:20:00,
2013-01-16 03:36:00,35.5,33.0,30.44,ENE,58,0.0,1.0,90,0.00,,,0.00,0,weatherlink.com 1.10,2013-01-16 11:36:00,
2013-01-16 03:51:00,36.0,34.0,30.44,ENE,58,0.0,0.0,91,0.00,,,0.00,0,weatherlink.com 1.10,2013-01-16 11:51:00,
2013-01-16 04:05:00,35.8,34.0,30.44,ENE,58,0.0,0.0,91,0.00,,,0.00,0,weatherlink.com 1.10,2013-01-16 12:05:00,
2013-01-16 04:21:00,35.6,34.0,30.43,ENE,58,0.0,0.0,92,0.00,,,0.00,0,weatherlink.com 1.10,2013-01-16 12:21:00,
2013-01-16 04:36:00,35.0,33.0,30.43,ENE,58,0.0,0.0,92,0.00,,,0.00,0,weatherlink.com 1.10,2013-01-16 12:36:00,
2013-01-16 04:52:00,34.9,33.0,30.43,ENE,58,0.0,2.0,92,0.00,,,0.00,0,weatherlink.com 1.10,2013-01-16 12:52:00,
2013-01-16 05:07:00,35.4,34.0,30.42,ENE,58,0.0,1.0,93,0.00,,,0.00,0,weatherlink.com 1.10,2013-01-16 13:07:00,
2013-01-16 05:22:00,35.5,34.0,30.42,NE,44,0.0,1.0,93,0.00,,,0.00,0,weatherlink.com 1.10,2013-01-16 13:22:00,
2013-01-16 05:36:00,34.3,32.0,30.42,North,5,2.0,5.0,92,0.00,,,0.00,0,weatherlink.com 1.10,2013-01-16 13:36:00,
2013-01-16 05:51:00,35.4,33.0,30.41,East,97,1.0,6.0,91,0.00,,,0.00,0,weatherlink.com 1.10,2013-01-16 13:51:00,
2013-01-16 06:07:00,36.3,34.0,30.42,ESE,103,0.0,1.0,91,0.00,,,0.00,0,weatherlink.com 1.10,2013-01-16 14:07:00,
2013-01-16 06:22:00,36.1,34.0,30.41,East,96,1.0,1.0,91,0.00,,,0.00,0,weatherlink.com 1.10,2013-01-16 14:22:00,
2013-01-16 06:37:00,35.5,33.0,30.42,East,97,0.0,1.0,92,0.00,,,0.00,0,weatherlink.com 1.10,2013-01-16 14:37:00,
2013-01-16 06:52:00,35.1,33.0,30.41,East,98,0.0,1.0,92,0.00,,,0.00,0,weatherlink.com 1.10,2013-01-16 14:52:00,
2013-01-16 07:07:00,35.2,33.0,30.41,East,98,0.0,1.0,93,0.00,,,0.00,0,weatherlink.com 1.10,2013-01-16 15:07:00,
2013-01-16 07:22:00,34.9,33.0,30.41,East,98,0.0,0.0,93,0.00,,,0.00,0,weatherlink.com 1.10,2013-01-16 15:22:00,
2013-01-16 07:38:00,35.0,33.0,30.42,East,98,0.0,0.0,93,0.00,,,0.00,11,weatherlink.com 1.10,2013-01-16 15:38:00,
2013-01-16 07:53:00,34.7,33.0,30.42,East,98,0.0,0.0,94,0.00,,,0.00,18,weatherlink.com 1.10,2013-01-16 15:53:00,
2013-01-16 08:08:00,34.6,33.0,30.43,East,96,0.0,2.0,94,0.00,,,0.00,25,weatherlink.com 1.10,2013-01-16 16:08:00,
2013-01-16 08:23:00,36.7,35.0,30.43,East,96,0.0,1.0,94,0.00,,,0.00,58,weatherlink.com 1.10,2013-01-16 16:23:00,
2013-01-16 08:38:00,36.1,34.0,30.43,East,97,0.0,1.0,92,0.00,,,0.00,153,weatherlink.com 1.10,2013-01-16 16:38:00,
2013-01-16 08:53:00,39.4,37.0,30.43,East,88,1.0,2.0,89,0.00,,,0.00,200,weatherlink.com 1.10,2013-01-16 16:53:00,
2013-01-16 09:09:00,41.6,39.0,30.44,East,88,0.0,1.0,90,0.00,,,0.00,243,weatherlink.com 1.10,2013-01-16 17:09:00,
2013-01-16 09:23:00,41.5,38.0,30.43,East,88,0.0,0.0,88,0.00,,,0.00,283,weatherlink.com 1.10,2013-01-16 17:23:00,
2013-01-16 09:39:00,44.0,40.0,30.43,North,5,0.0,0.0,87,0.00,,,0.00,322,weatherlink.com 1.10,2013-01-16 17:39:00,
2013-01-16 09:53:00,45.5,39.0,30.42,NNE,12,2.0,8.0,78,0.00,,,0.00,374,weatherlink.com 1.10,2013-01-16 17:53:00,
2013-01-16 10:09:00,47.1,40.0,30.42,NNW,344,0.0,8.0,75,0.00,,,0.00,406,weatherlink.com 1.10,2013-01-16 18:09:00,
2013-01-16 10:24:00,48.4,40.0,30.41,North,355,2.0,7.0,73,0.00,,,0.00,436,weatherlink.com 1.10,2013-01-16 18:24:00,
2013-01-16 10:40:00,50.2,41.0,30.40,NNE,33,4.0,8.0,71,0.00,,,0.00,464,weatherlink.com 1.10,2013-01-16 18:40:00,
2013-01-16 10:54:00,51.4,41.0,30.40,North,5,6.0,8.0,68,0.00,,,0.00,489,weatherlink.com 1.10,2013-01-16 18:54:00,
2013-01-16 11:10:00,49.0,41.0,30.39,WSW,252,2.0,5.0,75,0.00,,,0.00,508,weatherlink.com 1.10,2013-01-16 19:10:00,
2013-01-16 11:24:00,50.6,41.0,30.38,West,270,0.0,5.0,71,0.00,,,0.00,522,weatherlink.com 1.10,2013-01-16 19:24:00,
2013-01-16 11:40:00,51.1,42.0,30.37,West,267,2.0,3.0,70,0.00,,,0.00,541,weatherlink.com 1.10,2013-01-16 19:40:00,
2013-01-16 11:55:00,54.0,44.0,30.36,West,272,4.0,7.0,68,0.00,,,0.00,543,weatherlink.com 1.10,2013-01-16 19:55:00,
2013-01-16 12:09:00,55.1,43.0,30.35,West,277,1.0,5.0,64,0.00,,,0.00,547,weatherlink.com 1.10,2013-01-16 20:09:00,
2013-01-16 12:25:00,55.2,43.0,30.33,West,277,2.0,5.0,64,0.00,,,0.00,550,weatherlink.com 1.10,2013-01-16 20:25:00,
2013-01-16 12:41:00,54.9,42.0,30.32,West,271,4.0,6.0,63,0.00,,,0.00,478,weatherlink.com 1.10,2013-01-16 20:41:00,
2013-01-16 12:56:00,55.7,45.0,30.32,WNW,286,4.0,5.0,67,0.00,,,0.00,538,weatherlink.com 1.10,2013-01-16 20:56:00,
2013-01-16 13:11:00,55.3,45.0,30.31,West,269,5.0,8.0,68,0.00,,,0.00,522,weatherlink.com 1.10,2013-01-16 21:11:00,
2013-01-16 13:25:00,58.0,46.0,30.30,WNW,292,4.0,6.0,65,0.00,,,0.00,508,weatherlink.com 1.10,2013-01-16 21:25:00,
2013-01-16 13:41:00,57.3,45.0,30.30,West,265,5.0,8.0,63,0.00,,,0.00,490,weatherlink.com 1.10,2013-01-16 21:41:00,
2013-01-16 13:56:00,57.1,46.0,30.29,West,273,8.0,11.0,66,0.00,,,0.00,469,weatherlink.com 1.10,2013-01-16 21:56:00,
2013-01-16 14:11:00,57.8,46.0,30.29,West,271,6.0,10.0,64,0.00,,,0.00,439,weatherlink.com 1.10,2013-01-16 22:11:00,
2013-01-16 14:26:00,57.5,45.0,30.29,NW,309,5.0,10.0,64,0.00,,,0.00,410,weatherlink.com 1.10,2013-01-16 22:26:00,
2013-01-16 14:42:00,57.7,45.0,30.29,WNW,291,8.0,10.0,63,0.00,,,0.00,378,weatherlink.com 1.10,2013-01-16 22:42:00,
2013-01-16 14:57:00,57.5,44.0,30.29,West,281,6.0,9.0,60,0.00,,,0.00,348,weatherlink.com 1.10,2013-01-16 22:57:00,
2013-01-16 15:12:00,57.1,47.0,30.29,WNW,293,6.0,11.0,69,0.00,,,0.00,313,weatherlink.com 1.10,2013-01-16 23:12:00,
2013-01-16 15:26:00,57.5,47.0,30.29,NNW,340,1.0,8.0,67,0.00,,,0.00,269,weatherlink.com 1.10,2013-01-16 23:26:00,
2013-01-16 15:42:00,57.0,44.0,30.29,NW,315,0.0,6.0,62,0.00,,,0.00,220,weatherlink.com 1.10,2013-01-16 23:42:00,
2013-01-16 15:57:00,57.3,44.0,30.29,WNW,299,1.0,5.0,62,0.00,,,0.00,167,weatherlink.com 1.10,2013-01-16 23:57:00,
2013-01-16 16:12:00,55.8,44.0,30.30,West,281,4.0,8.0,66,0.00,,,0.00,118,weatherlink.com 1.10,2013-01-17 00:12:00,
2013-01-16 16:27:00,55.0,44.0,30.29,NW,311,0.0,5.0,66,0.00,,,0.00,76,weatherlink.com 1.10,2013-01-17 00:27:00,
2013-01-16 16:41:00,54.1,44.0,30.30,NNW,333,2.0,5.0,68,0.00,,,0.00,39,weatherlink.com 1.10,2013-01-17 00:41:00,
2013-01-16 16:58:00,51.5,42.0,30.29,NNW,334,0.0,4.0,71,0.00,,,0.00,18,weatherlink.com 1.10,2013-01-17 00:58:00,
2013-01-16 17:13:00,49.4,42.0,30.29,NNW,342,3.0,4.0,75,0.00,,,0.00,9,weatherlink.com 1.10,2013-01-17 01:13:00,
2013-01-16 17:28:00,47.8,41.0,30.30,NNW,343,0.0,0.0,78,0.00,,,0.00,0,weatherlink.com 1.10,2013-01-17 01:28:00,
2013-01-16 17:42:00,47.2,40.0,30.30,NE,34,0.0,0.0,77,0.00,,,0.00,0,weatherlink.com 1.10,2013-01-17 01:42:00,
2013-01-16 17:58:00,46.7,40.0,30.30,NE,51,0.0,0.0,77,0.00,,,0.00,0,weatherlink.com 1.10,2013-01-17 01:58:00,
2013-01-16 18:13:00,46.4,40.0,30.30,NE,51,0.0,0.0,79,0.00,,,0.00,0,weatherlink.com 1.10,2013-01-17 02:13:00,
2013-01-16 18:28:00,46.0,40.0,30.30,NE,51,0.0,0.0,80,0.00,,,0.00,0,weatherlink.com 1.10,2013-01-17 02:28:00,
2013-01-16 18:43:00,45.1,40.0,30.30,NE,51,0.0,0.0,83,0.00,,,0.00,0,weatherlink.com 1.10,2013-01-17 02:43:00,
2013-01-16 18:58:00,44.5,40.0,30.30,NE,51,0.0,1.0,84,0.00,,,0.00,0,weatherlink.com 1.10,2013-01-17 02:58:00,
2013-01-16 19:13:00,44.9,41.0,30.30,NE,51,0.0,0.0,86,0.00,,,0.00,0,weatherlink.com 1.10,2013-01-17 03:13:00,
2013-01-16 19:28:00,44.6,41.0,30.29,NE,51,0.0,0.0,88,0.00,,,0.00,0,weatherlink.com 1.10,2013-01-17 03:28:00,
2013-01-16 19:44:00,43.8,41.0,30.30,NE,51,0.0,0.0,88,0.00,,,0.00,0,weatherlink.com 1.10,2013-01-17 03:44:00,
2013-01-16 19:59:00,42.7,40.0,30.29,NE,51,0.0,0.0,89,0.00,,,0.00,0,weatherlink.com 1.10,2013-01-17 03:59:00,
2013-01-16 20:13:00,41.8,39.0,30.29,NE,51,0.0,0.0,89,0.00,,,0.00,0,weatherlink.com 1.10,2013-01-17 04:13:00,
2013-01-16 20:28:00,41.1,38.0,30.29,NE,51,0.0,0.0,89,0.00,,,0.00,0,weatherlink.com 1.10,2013-01-17 04:28:00,
2013-01-16 20:43:00,41.5,38.0,30.29,NE,51,0.0,1.0,88,0.00,,,0.00,0,weatherlink.com 1.10,2013-01-17 04:43:00,
2013-01-16 20:58:00,39.7,37.0,30.29,NE,55,0.0,1.0,88,0.00,,,0.00,0,weatherlink.com 1.10,2013-01-17 04:58:00,
2013-01-16 21:14:00,39.4,36.0,30.29,NE,55,0.0,1.0,88,0.00,,,0.00,0,weatherlink.com 1.10,2013-01-17 05:14:00,
2013-01-16 21:29:00,39.8,37.0,30.29,NE,55,0.0,1.0,89,0.00,,,0.00,0,weatherlink.com 1.10,2013-01-17 05:29:00,
2013-01-16 21:44:00,39.9,37.0,30.28,NE,55,0.0,1.0,90,0.00,,,0.00,0,weatherlink.com 1.10,2013-01-17 05:44:00,
2013-01-16 21:59:00,39.3,37.0,30.29,NE,55,0.0,2.0,90,0.00,,,0.00,0,weatherlink.com 1.10,2013-01-17 05:59:00,
2013-01-16 22:14:00,38.7,36.0,30.28,NE,56,0.0,1.0,90,0.00,,,0.00,0,weatherlink.com 1.10,2013-01-17 06:14:00,
2013-01-16 22:29:00,39.1,37.0,30.28,NE,56,0.0,0.0,90,0.00,,,0.00,0,weatherlink.com 1.10,2013-01-17 06:29:00,
2013-01-16 22:45:00,38.9,37.0,30.28,NE,56,0.0,0.0,91,0.00,,,0.00,0,weatherlink.com 1.10,2013-01-17 06:45:00,
2013-01-16 23:00:00,37.9,36.0,30.28,NE,56,0.0,1.0,91,0.00,,,0.00,0,weatherlink.com 1.10,2013-01-17 07:00:00,
2013-01-16 23:15:00,38.5,36.0,30.28,NE,56,0.0,0.0,91,0.00,,,0.00,0,weatherlink.com 1.10,2013-01-17 07:15:00,
2013-01-16 23:30:00,38.8,37.0,30.28,NE,56,0.0,0.0,92,0.00,,,0.00,0,weatherlink.com 1.10,2013-01-17 07:30:00,
2013-01-16 23:45:00,38.2,36.0,30.28,NE,56,0.0,1.0,91,0.00,,,0.00,0,weatherlink.com 1.10,2013-01-17 07:45:00,
2013-01-16 23:59:00,38.8,37.0,30.28,ENE,57,0.0,1.0,92,0.00,,,0.00,0,weatherlink.com 1.10,2013-01-17 07:59:00,